createdAt,value
2023-04-18T00:01:38.723Z,8.40
2023-04-18T00:04:13.646Z,8.30
2023-04-18T00:06:46.296Z,8.30
2023-04-18T00:09:18.106Z,8.10
2023-04-18T00:11:51.075Z,8.20
2023-04-18T00:14:23.110Z,8.20
2023-04-18T00:16:54.886Z,8.20
2023-04-18T00:19:26.719Z,8.20
2023-04-18T00:21:59.842Z,8.20
2023-04-18T00:24:31.768Z,8.10
2023-04-18T00:27:05.061Z,8.20
2023-04-18T00:29:36.940Z,8.10
2023-04-18T00:32:09.005Z,8.20
2023-04-18T00:34:40.948Z,8.20
2023-04-18T00:37:12.616Z,8.20
2023-04-18T00:39:44.450Z,8.20
2023-04-18T00:42:17.630Z,8.10
2023-04-18T00:44:49.723Z,8.10
2023-04-18T00:47:21.602Z,8.00
2023-04-18T00:49:53.897Z,8.00
2023-04-18T00:52:28.411Z,7.90
2023-04-18T00:55:00.429Z,7.90
2023-04-18T00:57:33.856Z,7.80
2023-04-18T01:00:10.015Z,7.90
2023-04-18T01:02:43.935Z,7.90
2023-04-18T01:05:15.923Z,7.90
2023-04-18T01:07:48.382Z,7.80
2023-04-18T01:10:20.845Z,7.80
2023-04-18T01:13:11.093Z,7.80
2023-04-18T01:15:45.100Z,7.90
2023-04-18T01:18:18.978Z,7.80
2023-04-18T01:20:54.567Z,7.90
2023-04-18T01:23:26.623Z,7.90
2023-04-18T01:25:59.832Z,7.90
2023-04-18T01:28:31.751Z,7.80
2023-04-18T01:31:03.615Z,7.80
2023-04-18T01:33:35.433Z,7.90
2023-04-18T01:36:07.451Z,7.90
2023-04-18T01:38:39.275Z,7.80
2023-04-18T01:41:12.456Z,7.80
2023-04-18T01:43:44.245Z,7.80
2023-04-18T01:46:16.750Z,7.70
2023-04-18T01:48:48.573Z,7.70
2023-04-18T01:51:20.436Z,7.80
2023-04-18T01:53:52.225Z,7.70
2023-04-18T01:56:25.379Z,7.80
2023-04-18T01:58:57.322Z,7.50
2023-04-18T02:01:29.167Z,7.50
2023-04-18T02:04:01.147Z,7.60
2023-04-18T02:06:34.190Z,7.50
2023-04-18T02:09:07.422Z,7.60
2023-04-18T02:11:40.344Z,7.60
2023-04-18T02:14:12.356Z,7.50
2023-04-18T02:16:44.211Z,7.50
2023-04-18T02:19:16.051Z,7.40
2023-04-18T02:21:47.891Z,7.50
2023-04-18T02:24:19.735Z,7.40
2023-04-18T02:26:53.810Z,7.50
2023-04-18T02:29:25.749Z,7.40
2023-04-18T02:31:58.247Z,7.30
2023-04-18T02:34:29.959Z,7.30
2023-04-18T02:37:01.910Z,7.30
2023-04-18T02:39:33.686Z,7.40
2023-04-18T02:42:06.894Z,7.30
2023-04-18T02:44:38.821Z,7.40
2023-04-18T02:47:10.848Z,7.40
2023-04-18T02:49:42.602Z,7.30
2023-04-18T02:52:14.474Z,7.40
2023-04-18T02:54:46.367Z,7.30
2023-04-18T02:57:19.388Z,7.20
2023-04-18T02:59:51.162Z,7.20
2023-04-18T03:02:23.261Z,7.30
2023-04-18T03:04:56.254Z,7.20
2023-04-18T03:07:27.896Z,7.30
2023-04-18T03:09:59.876Z,7.30
2023-04-18T03:12:32.796Z,7.20
2023-04-18T03:15:04.838Z,7.20
2023-04-18T03:17:37.136Z,7.10
2023-04-18T03:20:12.158Z,7.20
2023-04-18T03:22:43.698Z,7.20
2023-04-18T03:25:15.574Z,7.20
2023-04-18T03:27:48.638Z,7.20
2023-04-18T03:30:21.220Z,7.20
2023-04-18T03:32:53.761Z,7.20
2023-04-18T03:35:25.381Z,7.30
2023-04-18T03:37:57.419Z,7.30
2023-04-18T03:40:28.971Z,7.30
2023-04-18T03:43:01.885Z,7.20
2023-04-18T03:45:33.785Z,7.20
2023-04-18T03:48:06.275Z,7.20
2023-04-18T03:50:38.131Z,7.20
2023-04-18T03:53:09.985Z,7.20
2023-04-18T03:55:42.324Z,7.20
2023-04-18T03:58:16.164Z,7.10
2023-04-18T04:00:47.747Z,7.20
2023-04-18T04:03:19.856Z,7.20
2023-04-18T04:05:51.909Z,7.10
2023-04-18T04:08:23.752Z,7.20
2023-04-18T04:10:55.556Z,7.20
2023-04-18T04:13:28.520Z,7.20
2023-04-18T04:16:00.546Z,7.20
2023-04-18T04:18:32.175Z,7.10
2023-04-18T04:21:04.050Z,7.10
2023-04-18T04:23:35.968Z,7.00
2023-04-18T04:26:08.218Z,7.10
2023-04-18T04:28:41.257Z,7.20
2023-04-18T04:31:13.169Z,7.10
2023-04-18T04:33:44.941Z,7.10
2023-04-18T04:36:23.001Z,7.10
2023-04-18T04:38:55.028Z,7.10
2023-04-18T04:41:27.763Z,7.10
2023-04-18T04:44:01.784Z,7.10
2023-04-18T04:46:34.506Z,7.10
2023-04-18T04:49:06.415Z,7.10
2023-04-18T04:51:38.386Z,7.10
2023-04-18T04:54:11.060Z,7.10
2023-04-18T04:56:42.985Z,7.00
2023-04-18T04:59:16.319Z,7.00
2023-04-18T05:01:48.128Z,7.00
2023-04-18T05:04:20.265Z,7.00
2023-04-18T05:06:52.372Z,7.00
2023-04-18T05:09:24.235Z,7.10
2023-04-18T05:11:56.106Z,7.10
2023-04-18T05:14:29.148Z,7.10
2023-04-18T05:17:01.151Z,7.10
2023-04-18T05:19:32.932Z,7.00
2023-04-18T05:22:04.706Z,7.00
2023-04-18T05:24:36.543Z,7.00
2023-04-18T05:27:08.479Z,7.00
2023-04-18T05:29:41.593Z,7.00
2023-04-18T05:32:13.422Z,7.10
2023-04-18T05:34:45.256Z,7.10
2023-04-18T05:37:17.369Z,7.20
2023-04-18T05:39:49.167Z,7.20
2023-04-18T05:42:20.935Z,7.10
2023-04-18T05:44:54.152Z,7.20
2023-04-18T05:47:28.424Z,7.20
2023-04-18T05:50:00.460Z,7.20
2023-04-18T05:52:32.843Z,7.10
2023-04-18T05:55:04.755Z,7.10
2023-04-18T05:57:36.636Z,7.20
2023-04-18T06:00:12.936Z,7.10
2023-04-18T06:02:45.117Z,7.10
2023-04-18T06:05:17.648Z,7.20
2023-04-18T06:07:49.648Z,7.20
2023-04-18T06:10:21.554Z,7.20
2023-04-18T06:12:53.453Z,7.20
2023-04-18T06:15:26.635Z,7.10
2023-04-18T06:17:58.614Z,7.20
2023-04-18T06:20:30.478Z,7.10
2023-04-18T06:23:02.194Z,7.10
2023-04-18T06:25:34.062Z,7.10
2023-04-18T06:28:05.960Z,7.20
2023-04-18T06:30:39.198Z,7.20
2023-04-18T06:33:11.333Z,7.10
2023-04-18T06:35:43.499Z,7.10
2023-04-18T06:38:15.943Z,7.10
2023-04-18T06:40:47.910Z,7.20
2023-04-18T06:43:19.687Z,7.20
2023-04-18T06:45:52.756Z,7.20
2023-04-18T06:48:24.644Z,7.20
2023-04-18T06:50:56.571Z,7.20
2023-04-18T06:53:28.476Z,7.20
2023-04-18T06:56:00.391Z,7.20
2023-04-18T06:58:32.271Z,7.20
2023-04-18T07:01:06.153Z,7.20
2023-04-18T07:03:37.940Z,7.20
2023-04-18T07:06:11.587Z,7.20
2023-04-18T07:08:43.450Z,7.20
2023-04-18T07:11:18.483Z,7.20
2023-04-18T07:13:50.485Z,7.20
2023-04-18T07:16:23.436Z,7.10
2023-04-18T07:18:55.249Z,7.10
2023-04-18T07:21:27.370Z,7.10
2023-04-18T07:23:59.012Z,7.10
2023-04-18T07:26:30.868Z,7.10
2023-04-18T07:29:02.786Z,7.20
2023-04-18T07:31:36.098Z,7.20
2023-04-18T07:34:08.970Z,7.20
2023-04-18T07:36:41.902Z,7.20
2023-04-18T07:39:13.781Z,7.30
2023-04-18T07:41:45.799Z,7.40
2023-04-18T07:44:18.214Z,7.40
2023-04-18T07:46:51.144Z,7.40
2023-04-18T07:49:23.014Z,7.50
2023-04-18T07:51:54.824Z,7.50
2023-04-18T07:54:26.765Z,7.60
2023-04-18T07:56:59.049Z,7.60
2023-04-18T07:59:32.133Z,7.60
2023-04-18T08:02:05.236Z,7.70
2023-04-18T08:04:37.063Z,7.70
2023-04-18T08:07:08.704Z,7.70
2023-04-18T08:09:40.548Z,7.80
2023-04-18T08:12:12.342Z,7.80
2023-04-18T08:14:44.157Z,7.90
2023-04-18T08:17:17.122Z,7.90
2023-04-18T08:19:48.951Z,8.10
2023-04-18T08:22:20.951Z,8.10
2023-04-18T08:27:28.959Z,8.30
2023-04-18T08:30:01.712Z,8.50
2023-04-18T08:32:36.685Z,8.50
2023-04-18T08:35:09.366Z,8.60
2023-04-18T08:37:41.176Z,8.70
2023-04-18T08:40:14.141Z,8.80
2023-04-18T08:42:48.857Z,8.90
2023-04-18T08:45:24.175Z,8.90
2023-04-18T08:48:01.285Z,9.00
2023-04-18T08:50:34.652Z,9.10
2023-04-18T08:53:08.022Z,9.00
2023-04-18T08:55:40.489Z,9.10
2023-04-18T08:58:12.412Z,9.20
2023-04-18T09:00:53.031Z,9.20
2023-04-18T09:03:41.525Z,9.30
2023-04-18T09:06:20.216Z,9.30
2023-04-18T09:09:03.899Z,9.40
2023-04-18T09:11:36.103Z,9.40
2023-04-18T09:14:08.018Z,9.50
2023-04-18T09:16:50.485Z,9.50
2023-04-18T09:19:23.752Z,9.50
2023-04-18T09:22:04.503Z,9.60
2023-04-18T09:24:37.119Z,9.60
2023-04-18T09:27:14.895Z,9.60
2023-04-18T09:29:50.314Z,9.70
2023-04-18T09:32:29.628Z,9.60
2023-04-18T09:35:05.420Z,9.60
2023-04-18T09:37:39.146Z,9.70
2023-04-18T09:40:21.617Z,9.70
2023-04-18T09:42:56.509Z,9.80
2023-04-18T09:45:29.851Z,9.90
2023-04-18T09:48:01.762Z,10.10
2023-04-18T09:50:37.855Z,10.30
2023-04-18T09:53:13.280Z,10.30
2023-04-18T09:55:47.245Z,10.30
2023-04-18T09:58:22.294Z,10.20
2023-04-18T10:00:57.304Z,10.20
2023-04-18T10:03:42.334Z,10.20
2023-04-18T10:06:17.836Z,10.10
2023-04-18T10:08:52.745Z,10.10
2023-04-18T10:11:25.085Z,10.10
2023-04-18T10:14:03.563Z,10.10
2023-04-18T10:16:36.255Z,10.20
2023-04-18T10:19:26.828Z,10.30
2023-04-18T10:22:02.761Z,10.30
2023-04-18T10:24:57.056Z,10.30
2023-04-18T10:28:01.217Z,10.40
2023-04-18T10:31:03.479Z,10.40
2023-04-18T10:33:40.942Z,10.30
2023-04-18T10:36:21.686Z,10.40
2023-04-18T10:39:00.652Z,10.50
2023-04-18T10:41:35.585Z,10.50
2023-04-18T10:44:24.230Z,10.60
2023-04-18T10:47:32.717Z,10.70
2023-04-18T10:50:07.070Z,10.80
2023-04-18T10:52:39.402Z,11.00
2023-04-18T10:55:32.713Z,11.10
2023-04-18T10:58:06.283Z,11.10
2023-04-18T11:00:38.124Z,11.30
2023-04-18T11:03:10.572Z,11.30
2023-04-18T11:05:42.456Z,11.30
2023-04-18T11:08:28.616Z,11.30
2023-04-18T11:11:09.401Z,11.30
2023-04-18T11:13:55.385Z,11.30
2023-04-18T11:16:34.877Z,11.30
2023-04-18T11:19:19.118Z,11.30
2023-04-18T11:21:51.678Z,11.30
2023-04-18T11:24:27.344Z,11.30
2023-04-18T11:27:00.678Z,11.40
2023-04-18T11:29:32.312Z,11.40
2023-04-18T11:32:06.601Z,11.50
2023-04-18T11:34:38.617Z,11.60
2023-04-18T11:37:11.394Z,11.60
2023-04-18T11:39:46.525Z,11.60
2023-04-18T11:42:19.837Z,11.70
2023-04-18T11:44:51.704Z,11.80
2023-04-18T11:47:31.618Z,12.10
2023-04-18T11:50:06.946Z,12.20
2023-04-18T11:52:41.442Z,12.10
2023-04-18T11:55:22.053Z,12.10
2023-04-18T11:57:59.644Z,12.10
2023-04-18T12:00:38.461Z,12.10
2023-04-18T12:03:18.832Z,12.10
2023-04-18T12:05:59.002Z,12.30
2023-04-18T12:08:32.224Z,12.60
2023-04-18T12:11:03.797Z,12.60
2023-04-18T12:13:38.101Z,12.80
2023-04-18T12:16:11.330Z,12.90
2023-04-18T12:18:42.982Z,13.10
2023-04-18T12:21:17.052Z,13.00
2023-04-18T12:23:48.702Z,12.80
2023-04-18T12:26:22.790Z,13.00
2023-04-18T12:28:56.885Z,13.10
2023-04-18T12:31:28.858Z,13.00
2023-04-18T12:34:00.538Z,13.20
2023-04-18T12:36:32.435Z,13.50
2023-04-18T12:39:04.461Z,13.80
2023-04-18T12:41:36.112Z,14.00
2023-04-18T12:44:09.764Z,14.00
2023-04-18T12:46:41.673Z,13.90
2023-04-18T12:49:13.699Z,13.80
2023-04-18T12:51:45.545Z,13.60
2023-04-18T12:54:17.380Z,13.40
2023-04-18T12:56:50.187Z,13.50
2023-04-18T12:59:23.317Z,13.50
2023-04-18T13:01:55.210Z,13.90
2023-04-18T13:04:27.145Z,14.10
2023-04-18T13:06:59.179Z,14.30
2023-04-18T13:09:31.546Z,14.30
2023-04-18T13:12:03.518Z,14.30
2023-04-18T13:14:36.446Z,14.20
2023-04-18T13:17:08.677Z,14.10
2023-04-18T13:19:41.467Z,13.90
2023-04-18T13:22:13.300Z,13.80
2023-04-18T13:24:45.145Z,14.00
2023-04-18T13:27:17.126Z,13.80
2023-04-18T13:29:50.167Z,13.90
2023-04-18T13:32:22.202Z,13.80
2023-04-18T13:34:56.065Z,14.00
2023-04-18T13:37:28.224Z,14.40
2023-04-18T13:40:00.238Z,14.40
2023-04-18T13:42:32.114Z,14.30
2023-04-18T13:45:05.188Z,14.20
2023-04-18T13:47:37.498Z,14.10
2023-04-18T13:50:11.752Z,14.40
2023-04-18T13:52:43.526Z,14.70
2023-04-18T13:55:16.083Z,15.10
2023-04-18T13:57:47.735Z,15.00
2023-04-18T14:00:23.413Z,14.80
2023-04-18T14:02:57.509Z,15.10
2023-04-18T14:05:30.531Z,15.20
2023-04-18T14:08:03.935Z,15.40
2023-04-18T14:10:36.109Z,15.60
2023-04-18T14:13:07.976Z,15.50
2023-04-18T14:15:41.286Z,15.60
2023-04-18T14:18:13.176Z,15.60
2023-04-18T14:20:45.036Z,15.90
2023-04-18T14:23:16.963Z,15.90
2023-04-18T14:25:48.771Z,16.10
2023-04-18T14:28:24.765Z,16.20
2023-04-18T14:31:01.933Z,16.30
2023-04-18T14:33:34.946Z,16.30
2023-04-18T14:36:09.283Z,16.20
2023-04-18T14:38:41.626Z,16.40
2023-04-18T14:41:13.544Z,16.50
2023-04-18T14:43:45.401Z,16.30
2023-04-18T14:46:18.858Z,16.20
2023-04-18T14:48:50.914Z,16.40
2023-04-18T14:51:22.768Z,16.40
2023-04-18T14:53:55.472Z,16.50
2023-04-18T14:56:27.202Z,16.30
2023-04-18T14:58:59.023Z,16.50
2023-04-18T15:01:32.407Z,16.70
2023-04-18T15:04:04.458Z,16.80
2023-04-18T15:06:36.937Z,16.50
2023-04-18T15:09:08.620Z,16.30
2023-04-18T15:11:40.540Z,15.90
2023-04-18T15:14:14.113Z,16.00
2023-04-18T15:16:49.823Z,16.20
2023-04-18T15:19:21.775Z,16.30
2023-04-18T15:21:54.160Z,16.50
2023-04-18T15:24:26.331Z,16.70
2023-04-18T15:26:58.733Z,16.70
2023-04-18T15:29:30.570Z,16.50
2023-04-18T15:32:05.090Z,16.30
2023-04-18T15:34:37.099Z,16.10
2023-04-18T15:37:09.304Z,15.90
2023-04-18T15:39:40.930Z,15.50
2023-04-18T15:42:12.881Z,15.50
2023-04-18T15:44:44.515Z,15.40
2023-04-18T15:47:17.656Z,15.40
2023-04-18T15:49:50.578Z,15.40
2023-04-18T15:52:22.419Z,15.40
2023-04-18T15:54:55.369Z,15.30
2023-04-18T15:57:29.272Z,15.30
2023-04-18T16:00:01.206Z,15.60
2023-04-18T16:02:34.234Z,15.70
2023-04-18T16:05:05.962Z,15.60
2023-04-18T16:07:38.118Z,15.60
2023-04-18T16:10:11.153Z,15.80
2023-04-18T16:12:43.208Z,15.80
2023-04-18T16:15:15.600Z,16.00
2023-04-18T16:17:49.366Z,16.00
2023-04-18T16:20:21.223Z,15.80
2023-04-18T16:22:53.079Z,15.70
2023-04-18T16:25:24.836Z,15.60
2023-04-18T16:27:56.689Z,15.50
2023-04-18T16:30:28.498Z,15.30
2023-04-18T16:33:01.693Z,15.30
2023-04-18T16:35:33.633Z,15.20
2023-04-18T16:38:05.362Z,15.00
2023-04-18T16:40:36.965Z,15.10
2023-04-18T16:43:08.815Z,15.00
2023-04-18T16:45:40.847Z,14.90
2023-04-18T16:48:13.790Z,15.00
2023-04-18T16:50:45.713Z,14.70
2023-04-18T16:53:17.676Z,14.60
2023-04-18T16:55:50.327Z,14.60
2023-04-18T16:58:23.163Z,14.60
2023-04-18T17:00:54.753Z,14.60
2023-04-18T17:03:27.928Z,14.60
2023-04-18T17:06:00.794Z,14.70
2023-04-18T17:08:33.658Z,14.50
2023-04-18T17:11:05.507Z,14.60
2023-04-18T17:13:36.527Z,14.50
2023-04-18T17:16:09.541Z,14.40
2023-04-18T17:18:42.730Z,14.40
2023-04-18T17:21:14.501Z,14.50
2023-04-18T17:23:47.389Z,14.50
2023-04-18T17:26:19.367Z,14.30
2023-04-18T17:28:51.286Z,14.30
2023-04-18T17:31:23.315Z,14.30
2023-04-18T17:33:56.376Z,14.30
2023-04-18T17:36:29.761Z,14.30
2023-04-18T17:39:06.158Z,14.20
2023-04-18T17:41:41.763Z,14.20
2023-04-18T17:44:13.682Z,14.20
2023-04-18T17:46:46.770Z,14.20
2023-04-18T17:49:20.501Z,14.20
2023-04-18T17:51:52.364Z,14.20
2023-04-18T17:54:24.204Z,14.20
2023-04-18T17:56:57.754Z,14.20
2023-04-18T17:59:37.422Z,14.20
2023-04-18T18:02:11.640Z,14.00
2023-04-18T18:04:44.865Z,14.00
2023-04-18T18:07:16.638Z,14.10
2023-04-18T18:09:48.656Z,14.00
2023-04-18T18:12:20.473Z,14.10
2023-04-18T18:14:52.354Z,14.10
2023-04-18T18:17:24.357Z,14.00
2023-04-18T18:19:57.485Z,13.90
2023-04-18T18:22:29.162Z,13.90
2023-04-18T18:25:00.838Z,13.80
2023-04-18T18:27:32.700Z,13.80
2023-04-18T18:30:06.624Z,13.70
2023-04-18T18:32:38.462Z,13.70
2023-04-18T18:35:12.927Z,13.60
2023-04-18T18:37:46.216Z,13.60
2023-04-18T18:40:18.020Z,13.60
2023-04-18T18:42:51.360Z,13.60
2023-04-18T18:45:24.931Z,13.50
2023-04-18T18:47:56.868Z,13.50
2023-04-18T18:50:29.855Z,13.50
2023-04-18T18:53:02.374Z,13.40
2023-04-18T18:55:34.843Z,13.40
2023-04-18T18:58:08.209Z,13.40
2023-04-18T19:00:41.498Z,13.40
2023-04-18T19:03:18.325Z,13.40
2023-04-18T19:05:51.582Z,13.30
2023-04-18T19:08:24.971Z,13.30
2023-04-18T19:10:56.883Z,13.30
2023-04-18T19:13:28.750Z,13.30
2023-04-18T19:16:00.745Z,13.30
2023-04-18T19:18:32.728Z,13.20
2023-04-18T19:21:05.723Z,13.10
2023-04-18T19:23:37.632Z,13.10
2023-04-18T19:26:09.545Z,13.00
2023-04-18T19:28:41.911Z,13.00
2023-04-18T19:31:13.829Z,12.80
2023-04-18T19:33:45.942Z,12.90
2023-04-18T19:36:19.021Z,12.70
2023-04-18T19:38:50.745Z,12.80
2023-04-18T19:41:22.650Z,12.80
2023-04-18T19:43:54.484Z,12.60
2023-04-18T19:46:27.905Z,12.60
2023-04-18T19:48:59.569Z,12.60
2023-04-18T19:51:32.679Z,12.60
2023-04-18T19:54:04.620Z,12.50
2023-04-18T19:56:36.530Z,12.50
2023-04-18T19:59:08.383Z,12.50
2023-04-18T20:01:40.393Z,12.50
2023-04-18T20:04:14.291Z,12.50
2023-04-18T20:06:47.605Z,12.50
2023-04-18T20:09:19.783Z,12.40
2023-04-18T20:11:54.202Z,12.50
2023-04-18T20:14:26.191Z,12.40
2023-04-18T20:16:57.842Z,12.30
2023-04-18T20:19:29.934Z,12.30
2023-04-18T20:22:03.719Z,12.30
2023-04-18T20:24:35.578Z,12.30
2023-04-18T20:27:07.418Z,12.30
2023-04-18T20:29:39.379Z,12.30
2023-04-18T20:32:12.341Z,12.30
2023-04-18T20:34:44.131Z,12.20
2023-04-18T20:37:19.748Z,12.20
2023-04-18T20:39:52.779Z,12.10
2023-04-18T20:42:24.760Z,12.10
2023-04-18T20:44:58.739Z,12.00
2023-04-18T20:47:30.394Z,12.00
2023-04-18T20:50:02.287Z,12.00
2023-04-18T20:52:35.463Z,11.90
2023-04-18T20:55:07.385Z,11.90
2023-04-18T20:57:39.330Z,11.90
2023-04-18T21:00:14.265Z,11.90
2023-04-18T21:02:46.522Z,11.90
2023-04-18T21:05:18.233Z,11.90
2023-04-18T21:07:51.389Z,12.00
2023-04-18T21:10:23.108Z,12.00
2023-04-18T21:12:54.974Z,12.00
2023-04-18T21:15:26.877Z,11.90
2023-04-18T21:17:58.774Z,11.80
2023-04-18T21:20:30.635Z,11.80
2023-04-18T21:23:03.678Z,11.80
2023-04-18T21:25:35.516Z,11.80
2023-04-18T21:28:07.888Z,11.70
2023-04-18T21:30:39.779Z,11.70
2023-04-18T21:33:11.842Z,11.70
2023-04-18T21:35:43.488Z,11.80
2023-04-18T21:38:16.662Z,11.70
2023-04-18T21:40:48.925Z,11.60
2023-04-18T21:43:20.638Z,11.60
2023-04-18T21:45:52.532Z,11.60
2023-04-18T21:48:24.435Z,11.60
2023-04-18T21:50:59.198Z,11.50
2023-04-18T21:53:32.437Z,11.50
2023-04-18T21:56:05.460Z,11.40
2023-04-18T21:58:37.419Z,11.40
2023-04-18T22:01:09.331Z,11.40
2023-04-18T22:03:41.645Z,11.40
2023-04-18T22:06:13.410Z,11.40
2023-04-18T22:08:46.575Z,11.40
2023-04-18T22:11:18.954Z,11.40
2023-04-18T22:13:54.193Z,11.40
2023-04-18T22:16:28.691Z,11.30
2023-04-18T22:19:01.072Z,11.20
2023-04-18T22:21:32.974Z,11.20
2023-04-18T22:24:06.024Z,11.10
2023-04-18T22:26:37.892Z,11.10
2023-04-18T22:29:09.857Z,11.00
2023-04-18T22:31:43.049Z,11.00
2023-04-18T22:34:14.931Z,10.90
2023-04-18T22:36:46.894Z,10.90
2023-04-18T22:39:20.292Z,10.90
2023-04-18T22:41:52.100Z,10.80
2023-04-18T22:44:23.945Z,10.80
2023-04-18T22:46:55.902Z,10.80
2023-04-18T22:49:27.558Z,10.90
2023-04-18T22:51:59.598Z,10.80
2023-04-18T22:54:32.572Z,10.70
2023-04-18T22:57:04.467Z,10.60
2023-04-18T22:59:36.415Z,10.70
2023-04-18T23:02:08.347Z,10.60
2023-04-18T23:04:42.159Z,10.60
2023-04-18T23:07:14.323Z,10.50
2023-04-18T23:09:47.380Z,10.50
2023-04-18T23:12:19.214Z,10.50
2023-04-18T23:14:51.105Z,10.50
2023-04-18T23:17:23.008Z,10.40
2023-04-18T23:19:54.860Z,10.40
2023-04-18T23:22:26.713Z,10.40
2023-04-18T23:25:00.175Z,10.50
2023-04-18T23:27:32.053Z,10.40
2023-04-18T23:30:03.994Z,10.40
2023-04-18T23:32:35.864Z,10.30
2023-04-18T23:35:07.820Z,10.30
2023-04-18T23:37:40.118Z,10.30
2023-04-18T23:40:14.491Z,10.30
2023-04-18T23:42:47.096Z,10.20
2023-04-18T23:45:20.634Z,10.20
2023-04-18T23:47:52.479Z,10.20
2023-04-18T23:50:24.569Z,10.10
2023-04-18T23:52:56.385Z,10.10
2023-04-18T23:55:29.738Z,10.10
2023-04-18T23:58:01.730Z,10.10
